createdAt,value
2019-03-20T00:02:18.250Z,71.73
2019-03-20T00:04:50.616Z,71.87
2019-03-20T00:07:24.821Z,71.65
2019-03-20T00:09:55.659Z,71.86
2019-03-20T00:12:26.442Z,71.69
2019-03-20T00:14:57.786Z,71.86
2019-03-20T00:17:28.222Z,71.91
2019-03-20T00:19:59.028Z,71.69
2019-03-20T00:22:29.533Z,71.71
2019-03-20T00:25:00.447Z,71.77
2019-03-20T00:27:31.207Z,72.04
2019-03-20T00:30:01.727Z,71.81
2019-03-20T00:32:32.618Z,72.10
2019-03-20T00:35:03.531Z,71.90
2019-03-20T00:37:34.370Z,72.08
2019-03-20T00:40:10.828Z,72.25
2019-03-20T00:42:41.700Z,72.17
2019-03-20T00:45:23.177Z,72.10
2019-03-20T00:47:53.789Z,72.15
2019-03-20T00:50:24.977Z,72.02
2019-03-20T00:52:58.837Z,72.05
2019-03-20T00:55:29.578Z,72.46
2019-03-20T00:58:00.513Z,72.36
2019-03-20T01:00:31.361Z,72.45
2019-03-20T01:03:02.314Z,72.40
2019-03-20T01:05:35.892Z,72.39
2019-03-20T01:08:06.928Z,72.32
2019-03-20T01:10:37.867Z,72.29
2019-03-20T01:13:08.766Z,72.17
2019-03-20T01:15:39.395Z,71.90
2019-03-20T01:18:10.176Z,72.43
2019-03-20T01:20:41.007Z,72.58
2019-03-20T01:23:11.840Z,72.00
2019-03-20T01:25:42.690Z,72.12
2019-03-20T01:28:13.534Z,72.26
2019-03-20T01:30:44.460Z,72.33
2019-03-20T01:33:15.534Z,72.14
2019-03-20T01:35:46.357Z,72.18
2019-03-20T01:38:17.390Z,72.43
2019-03-20T01:40:47.908Z,72.52
2019-03-20T01:43:18.404Z,72.43
2019-03-20T01:45:49.277Z,72.35
2019-03-20T01:48:20.110Z,72.38
2019-03-20T01:50:50.945Z,72.45
2019-03-20T01:53:21.782Z,72.65
2019-03-20T01:55:52.240Z,72.79
2019-03-20T01:58:23.174Z,72.57
2019-03-20T02:00:53.990Z,72.49
2019-03-20T02:03:24.854Z,72.78
2019-03-20T02:05:55.664Z,72.99
2019-03-20T02:08:26.516Z,73.02
2019-03-20T02:10:57.334Z,73.22
2019-03-20T02:13:28.177Z,73.33
2019-03-20T02:15:59.210Z,73.72
2019-03-20T02:18:30.067Z,74.13
2019-03-20T02:21:01.194Z,73.92
2019-03-20T02:23:32.026Z,73.97
2019-03-20T02:26:02.877Z,74.23
2019-03-20T02:28:33.715Z,74.35
2019-03-20T02:31:04.791Z,74.52
2019-03-20T02:33:35.692Z,74.55
2019-03-20T02:36:06.507Z,74.74
2019-03-20T02:38:37.345Z,74.89
2019-03-20T02:41:08.068Z,74.99
2019-03-20T02:43:39.039Z,75.26
2019-03-20T02:46:09.854Z,75.12
2019-03-20T02:48:40.612Z,75.21
2019-03-20T02:51:11.529Z,75.22
2019-03-20T02:53:42.264Z,75.17
2019-03-20T02:56:13.086Z,74.81
2019-03-20T02:58:43.850Z,75.12
2019-03-20T03:01:14.784Z,75.13
2019-03-20T03:03:45.295Z,75.31
2019-03-20T03:06:16.162Z,75.50
2019-03-20T03:08:46.960Z,75.36
2019-03-20T03:11:17.931Z,75.38
2019-03-20T03:13:48.882Z,75.24
2019-03-20T03:16:19.813Z,75.25
2019-03-20T03:18:50.632Z,75.39
2019-03-20T03:21:21.477Z,75.43
2019-03-20T03:23:55.094Z,75.58
2019-03-20T03:26:26.022Z,75.75
2019-03-20T03:28:56.846Z,75.56
2019-03-20T03:31:27.689Z,75.65
2019-03-20T03:33:58.623Z,75.63
2019-03-20T03:36:29.487Z,75.70
2019-03-20T03:39:00.428Z,75.52
2019-03-20T03:41:31.340Z,75.61
2019-03-20T03:44:02.208Z,75.50
2019-03-20T03:46:33.006Z,75.43
2019-03-20T03:49:03.876Z,75.55
2019-03-20T03:51:34.669Z,75.59
2019-03-20T03:54:05.840Z,75.38
2019-03-20T03:56:36.653Z,75.57
2019-03-20T03:59:07.405Z,75.85
2019-03-20T04:01:38.298Z,75.71
2019-03-20T04:04:08.867Z,75.95
2019-03-20T04:06:39.716Z,75.93
2019-03-20T04:09:10.532Z,76.08
2019-03-20T04:11:41.263Z,76.02
2019-03-20T04:14:12.101Z,76.01
2019-03-20T04:16:42.958Z,76.05
2019-03-20T04:19:13.774Z,75.95
2019-03-20T04:21:44.624Z,76.01
2019-03-20T04:24:15.484Z,76.00
2019-03-20T04:26:46.279Z,75.93
2019-03-20T04:29:17.132Z,75.95
2019-03-20T04:31:47.952Z,76.42
2019-03-20T04:34:18.821Z,77.18
2019-03-20T04:36:49.640Z,77.23
2019-03-20T04:39:20.562Z,77.34
2019-03-20T04:41:51.415Z,77.30
2019-03-20T04:44:22.269Z,77.22
2019-03-20T04:46:53.082Z,77.09
2019-03-20T04:49:23.915Z,76.98
2019-03-20T04:51:54.745Z,76.91
2019-03-20T04:54:25.207Z,77.08
2019-03-20T04:56:56.118Z,77.10
2019-03-20T04:59:26.961Z,77.43
2019-03-20T05:01:57.693Z,77.63
2019-03-20T05:04:28.554Z,77.53
2019-03-20T05:06:59.474Z,77.80
2019-03-20T05:09:30.669Z,77.35
2019-03-20T05:12:01.193Z,77.00
2019-03-20T05:14:32.075Z,76.82
2019-03-20T05:17:02.838Z,76.87
2019-03-20T05:19:33.759Z,76.63
2019-03-20T05:22:04.477Z,76.80
2019-03-20T05:24:35.356Z,76.57
2019-03-20T05:27:05.879Z,76.58
2019-03-20T05:29:36.352Z,76.78
2019-03-20T05:32:06.885Z,76.51
2019-03-20T05:34:37.747Z,76.63
2019-03-20T05:37:10.677Z,76.58
2019-03-20T05:39:40.777Z,76.46
2019-03-20T05:42:11.693Z,76.76
2019-03-20T05:44:42.486Z,76.49
2019-03-20T05:47:13.362Z,76.34
2019-03-20T05:49:44.125Z,76.59
2019-03-20T05:52:14.965Z,76.55
2019-03-20T05:54:45.422Z,76.69
2019-03-20T05:57:16.315Z,76.63
2019-03-20T05:59:47.237Z,76.49
2019-03-20T06:02:18.071Z,76.43
2019-03-20T06:04:48.847Z,76.33
2019-03-20T06:07:21.761Z,76.15
2019-03-20T06:09:51.818Z,76.13
2019-03-20T06:12:22.640Z,76.76
2019-03-20T06:14:53.122Z,76.44
2019-03-20T06:17:24.453Z,76.31
2019-03-20T06:19:55.395Z,76.12
2019-03-20T06:22:26.478Z,76.12
2019-03-20T06:24:57.273Z,76.27
2019-03-20T06:27:28.091Z,76.44
2019-03-20T06:29:59.033Z,76.47
2019-03-20T06:32:29.488Z,75.63
2019-03-20T06:35:00.446Z,75.15
2019-03-20T06:37:32.782Z,75.20
2019-03-20T06:40:04.961Z,75.40
2019-03-20T06:42:36.005Z,75.45
2019-03-20T06:45:10.125Z,75.04
2019-03-20T06:47:40.922Z,74.48
2019-03-20T06:50:17.496Z,73.37
2019-03-20T06:52:48.054Z,73.56
2019-03-20T06:55:18.970Z,73.28
2019-03-20T06:57:49.935Z,72.99
2019-03-20T07:00:55.820Z,72.68
2019-03-20T07:03:29.798Z,72.37
2019-03-20T07:06:12.205Z,72.03
2019-03-20T07:09:05.571Z,72.15
2019-03-20T07:11:40.678Z,71.81
2019-03-20T07:14:23.325Z,71.71
2019-03-20T07:16:54.287Z,71.61
2019-03-20T07:19:28.152Z,71.08
2019-03-20T07:21:59.200Z,70.53
2019-03-20T07:24:30.257Z,70.48
2019-03-20T07:27:01.018Z,70.08
2019-03-20T07:29:31.843Z,70.22
2019-03-20T07:32:02.930Z,69.75
2019-03-20T07:34:34.034Z,69.47
2019-03-20T07:37:04.626Z,69.07
2019-03-20T07:39:35.574Z,68.97
2019-03-20T07:42:06.630Z,69.25
2019-03-20T07:44:37.586Z,68.67
2019-03-20T07:47:08.372Z,68.87
2019-03-20T07:49:39.256Z,69.06
2019-03-20T07:52:10.075Z,69.56
2019-03-20T07:54:40.875Z,68.76
2019-03-20T07:57:11.744Z,68.80
2019-03-20T07:59:42.564Z,68.51
2019-03-20T08:02:13.600Z,68.34
2019-03-20T08:04:44.436Z,68.03
2019-03-20T08:07:15.287Z,67.79
2019-03-20T08:09:45.815Z,67.84
2019-03-20T08:12:16.730Z,67.23
2019-03-20T08:14:49.357Z,66.67
2019-03-20T08:17:20.319Z,66.29
2019-03-20T08:19:51.224Z,66.06
2019-03-20T08:22:22.125Z,65.77
2019-03-20T08:24:55.843Z,65.74
2019-03-20T08:27:26.783Z,65.92
2019-03-20T08:29:57.604Z,65.75
2019-03-20T08:32:31.301Z,65.21
2019-03-20T08:35:02.212Z,63.91
2019-03-20T08:37:32.982Z,63.66
2019-03-20T08:40:05.274Z,63.78
2019-03-20T08:42:36.228Z,63.07
2019-03-20T08:45:15.318Z,62.71
2019-03-20T08:47:46.311Z,62.76
2019-03-20T08:50:19.825Z,62.35
2019-03-20T08:52:51.354Z,61.89
2019-03-20T08:55:22.661Z,61.94
2019-03-20T08:57:53.567Z,61.92
2019-03-20T09:00:25.360Z,61.87
2019-03-20T09:02:56.135Z,61.79
2019-03-20T09:05:27.032Z,60.96
2019-03-20T09:07:57.973Z,60.95
2019-03-20T09:10:29.051Z,60.70
2019-03-20T09:13:02.942Z,60.45
2019-03-20T09:15:33.779Z,60.66
2019-03-20T09:18:04.744Z,60.40
2019-03-20T09:20:35.534Z,59.82
2019-03-20T09:23:08.010Z,62.54
2019-03-20T09:25:39.195Z,62.27
2019-03-20T09:28:10.302Z,60.63
2019-03-20T09:30:42.880Z,58.16
2019-03-20T09:33:14.243Z,58.91
2019-03-20T09:35:45.807Z,58.16
2019-03-20T09:38:16.737Z,56.91
2019-03-20T09:40:47.681Z,56.93
2019-03-20T09:43:18.808Z,58.13
2019-03-20T09:45:49.844Z,57.44
2019-03-20T09:48:21.007Z,57.25
2019-03-20T09:50:51.930Z,57.40
2019-03-20T09:53:22.841Z,57.51
2019-03-20T09:55:53.807Z,57.10
2019-03-20T09:58:24.929Z,56.95
2019-03-20T10:00:55.713Z,56.93
2019-03-20T10:03:26.582Z,57.24
2019-03-20T10:05:57.153Z,57.25
2019-03-20T10:08:29.125Z,57.64
2019-03-20T10:11:00.075Z,57.59
2019-03-20T10:13:30.542Z,58.20
2019-03-20T10:16:01.313Z,57.78
2019-03-20T10:18:32.283Z,58.33
2019-03-20T10:21:03.116Z,58.59
2019-03-20T10:23:33.950Z,58.64
2019-03-20T10:26:04.765Z,58.75
2019-03-20T10:28:35.198Z,58.82
2019-03-20T10:31:05.686Z,58.60
2019-03-20T10:33:38.109Z,58.49
2019-03-20T10:36:09.037Z,58.56
2019-03-20T10:38:40.904Z,58.29
2019-03-20T10:41:11.893Z,57.76
2019-03-20T10:43:42.696Z,57.27
2019-03-20T10:46:13.248Z,56.64
2019-03-20T10:48:44.142Z,56.85
2019-03-20T10:51:16.524Z,57.54
2019-03-20T10:53:47.340Z,57.18
2019-03-20T10:56:18.230Z,57.21
2019-03-20T10:58:48.786Z,57.85
2019-03-20T11:01:19.817Z,57.42
2019-03-20T11:03:50.715Z,57.19
2019-03-20T11:06:21.557Z,56.51
2019-03-20T11:08:52.493Z,55.60
2019-03-20T11:11:27.384Z,56.35
2019-03-20T11:13:55.944Z,56.26
2019-03-20T11:16:26.426Z,56.11
2019-03-20T11:18:57.467Z,55.61
2019-03-20T11:21:28.293Z,55.70
2019-03-20T11:23:59.814Z,55.67
2019-03-20T11:26:30.286Z,55.85
2019-03-20T11:29:00.789Z,55.67
2019-03-20T11:31:31.664Z,55.38
2019-03-20T11:34:02.894Z,55.14
2019-03-20T11:36:33.841Z,55.00
2019-03-20T11:39:07.873Z,54.92
2019-03-20T11:41:43.962Z,55.04
2019-03-20T11:44:14.442Z,55.45
2019-03-20T11:46:45.275Z,55.57
2019-03-20T11:49:16.119Z,55.21
2019-03-20T11:51:46.945Z,55.03
2019-03-20T11:54:17.854Z,54.83
2019-03-20T11:56:48.631Z,54.98
2019-03-20T11:59:19.501Z,54.17
2019-03-20T12:01:50.297Z,54.33
2019-03-20T12:04:21.107Z,54.29
2019-03-20T12:06:51.989Z,54.31
2019-03-20T12:09:22.905Z,53.87
2019-03-20T12:11:53.844Z,54.01
2019-03-20T12:14:24.680Z,54.44
2019-03-20T12:16:55.514Z,54.18
2019-03-20T12:19:26.497Z,54.41
2019-03-20T12:21:57.390Z,53.62
2019-03-20T12:24:28.105Z,53.32
2019-03-20T12:26:58.538Z,53.75
2019-03-20T12:29:29.288Z,53.95
2019-03-20T12:32:00.260Z,54.07
2019-03-20T12:34:34.234Z,54.47
2019-03-20T12:37:05.086Z,54.45
2019-03-20T12:39:38.233Z,53.93
2019-03-20T12:42:08.611Z,53.90
2019-03-20T12:44:39.610Z,53.66
2019-03-20T12:47:10.500Z,53.58
2019-03-20T12:49:41.402Z,53.11
2019-03-20T12:52:12.282Z,53.35
2019-03-20T12:54:43.195Z,52.76
2019-03-20T12:57:13.670Z,53.02
2019-03-20T12:59:44.621Z,53.07
2019-03-20T13:02:15.495Z,52.69
2019-03-20T13:04:46.329Z,52.65
2019-03-20T13:07:17.058Z,52.47
2019-03-20T13:09:47.897Z,52.70
2019-03-20T13:12:18.617Z,53.14
2019-03-20T13:14:49.368Z,52.83
2019-03-20T13:17:20.229Z,52.45
2019-03-20T13:19:51.049Z,52.36
2019-03-20T13:22:21.668Z,51.57
2019-03-20T13:24:52.502Z,52.14
2019-03-20T13:27:23.247Z,52.71
2019-03-20T13:29:54.102Z,52.68
2019-03-20T13:32:24.592Z,52.66
2019-03-20T13:34:55.342Z,52.56
2019-03-20T13:37:26.387Z,52.33
2019-03-20T13:39:57.230Z,52.36
2019-03-20T13:42:29.274Z,52.52
2019-03-20T13:45:00.011Z,52.68
2019-03-20T13:47:31.079Z,52.92
2019-03-20T13:50:01.619Z,52.67
2019-03-20T13:52:32.335Z,53.05
2019-03-20T13:55:02.798Z,52.59
2019-03-20T13:57:33.649Z,52.66
2019-03-20T14:00:10.448Z,53.45
2019-03-20T14:02:41.372Z,53.26
2019-03-20T14:05:12.764Z,53.56
2019-03-20T14:07:46.720Z,53.55
2019-03-20T14:10:25.828Z,53.77
2019-03-20T14:12:57.080Z,53.49
2019-03-20T14:15:27.984Z,52.98
2019-03-20T14:18:01.022Z,53.38
2019-03-20T14:20:33.227Z,53.01
2019-03-20T14:23:04.152Z,52.88
2019-03-20T14:25:35.024Z,53.00
2019-03-20T14:28:05.802Z,52.41
2019-03-20T14:30:36.669Z,52.64
2019-03-20T14:33:07.184Z,52.07
2019-03-20T14:35:38.212Z,52.14
2019-03-20T14:38:10.153Z,52.19
2019-03-20T14:40:41.024Z,52.60
2019-03-20T14:43:12.053Z,53.06
2019-03-20T14:45:46.345Z,53.08
2019-03-20T14:48:19.585Z,53.10
2019-03-20T14:50:49.923Z,53.79
2019-03-20T14:53:20.819Z,53.82
2019-03-20T14:55:52.541Z,53.39
2019-03-20T14:58:24.044Z,53.18
2019-03-20T15:00:54.899Z,52.55
2019-03-20T15:03:27.185Z,51.98
2019-03-20T15:05:58.273Z,52.00
2019-03-20T15:08:28.880Z,52.25
2019-03-20T15:10:59.341Z,52.11
2019-03-20T15:13:30.406Z,51.84
2019-03-20T15:16:10.171Z,51.78
2019-03-20T15:18:42.690Z,51.72
2019-03-20T15:21:15.200Z,51.88
2019-03-20T15:23:46.155Z,51.69
2019-03-20T15:26:17.432Z,51.36
2019-03-20T15:28:48.311Z,51.69
2019-03-20T15:31:19.059Z,51.70
2019-03-20T15:33:49.951Z,51.61
2019-03-20T15:36:20.593Z,51.10
2019-03-20T15:38:51.457Z,51.25
2019-03-20T15:41:22.380Z,51.27
2019-03-20T15:44:02.182Z,51.37
2019-03-20T15:46:25.775Z,51.52
2019-03-20T15:48:58.236Z,51.32
2019-03-20T15:51:28.953Z,51.53
2019-03-20T15:53:59.808Z,51.56
2019-03-20T15:56:30.396Z,52.00
2019-03-20T15:59:01.259Z,51.95
2019-03-20T16:01:32.219Z,52.00
2019-03-20T16:04:05.030Z,52.22
2019-03-20T16:06:35.952Z,52.52
2019-03-20T16:09:08.654Z,52.72
2019-03-20T16:11:39.205Z,52.70
2019-03-20T16:14:10.192Z,53.04
2019-03-20T16:16:41.061Z,53.08
2019-03-20T16:19:11.923Z,53.34
2019-03-20T16:21:46.726Z,53.44
2019-03-20T16:24:17.190Z,53.41
2019-03-20T16:26:47.621Z,53.94
2019-03-20T16:29:18.579Z,54.17
2019-03-20T16:31:49.436Z,54.29
2019-03-20T16:34:19.951Z,54.30
2019-03-20T16:36:50.823Z,54.64
2019-03-20T16:39:21.750Z,54.87
2019-03-20T16:41:52.297Z,54.59
2019-03-20T16:44:23.179Z,54.93
2019-03-20T16:46:54.035Z,54.95
2019-03-20T16:49:24.835Z,55.07
2019-03-20T16:51:55.599Z,55.23
2019-03-20T16:54:26.587Z,55.44
2019-03-20T16:56:57.426Z,55.53
2019-03-20T16:59:28.414Z,55.46
2019-03-20T17:02:00.949Z,55.47
2019-03-20T17:04:31.893Z,55.63
2019-03-20T17:07:03.974Z,55.69
2019-03-20T17:09:34.837Z,55.70
2019-03-20T17:12:06.102Z,55.81
2019-03-20T17:14:41.832Z,55.50
2019-03-20T17:17:17.681Z,55.61
2019-03-20T17:19:48.814Z,55.61
2019-03-20T17:22:21.450Z,55.73
2019-03-20T17:24:56.660Z,55.34
2019-03-20T17:27:30.286Z,55.74
2019-03-20T17:30:04.742Z,55.64
2019-03-20T17:32:40.031Z,55.71
2019-03-20T17:35:14.093Z,56.09
2019-03-20T17:37:52.850Z,55.98
2019-03-20T17:40:28.396Z,55.92
2019-03-20T17:43:01.709Z,56.13
2019-03-20T17:45:34.428Z,56.11
2019-03-20T17:48:05.685Z,56.28
2019-03-20T17:50:36.537Z,56.36
2019-03-20T17:53:07.593Z,56.35
2019-03-20T17:55:38.277Z,55.94
2019-03-20T17:58:09.247Z,56.22
2019-03-20T18:00:44.829Z,55.97
2019-03-20T18:03:15.919Z,56.40
2019-03-20T18:05:46.742Z,56.54
2019-03-20T18:08:19.256Z,56.66
2019-03-20T18:10:50.425Z,56.85
2019-03-20T18:13:21.270Z,56.74
2019-03-20T18:15:52.155Z,56.81
2019-03-20T18:18:22.914Z,57.07
2019-03-20T18:20:53.814Z,57.10
2019-03-20T18:23:24.581Z,57.50
2019-03-20T18:25:55.478Z,58.30
2019-03-20T18:28:26.298Z,58.63
2019-03-20T18:30:58.539Z,58.39
2019-03-20T18:33:31.000Z,58.94
2019-03-20T18:36:01.494Z,59.26
2019-03-20T18:38:31.984Z,59.99
2019-03-20T18:41:02.906Z,60.87
2019-03-20T18:43:36.722Z,61.38
2019-03-20T18:46:08.169Z,62.15
2019-03-20T18:48:43.101Z,62.95
2019-03-20T18:51:21.498Z,63.56
2019-03-20T18:53:52.555Z,64.89
2019-03-20T18:56:23.531Z,64.63
2019-03-20T18:58:57.430Z,64.49
2019-03-20T19:01:29.556Z,64.42
2019-03-20T19:03:59.971Z,64.38
2019-03-20T19:06:31.755Z,64.13
2019-03-20T19:09:12.941Z,64.08
2019-03-20T19:11:47.531Z,64.16
2019-03-20T19:14:18.763Z,64.00
2019-03-20T19:16:49.951Z,63.94
2019-03-20T19:19:21.231Z,63.59
2019-03-20T19:21:52.600Z,63.77
2019-03-20T19:24:23.603Z,63.64
2019-03-20T19:26:54.649Z,63.39
2019-03-20T19:29:25.799Z,63.17
2019-03-20T19:32:00.515Z,62.91
2019-03-20T19:34:32.542Z,62.95
2019-03-20T19:37:03.515Z,62.66
2019-03-20T19:39:34.392Z,62.88
2019-03-20T19:42:05.221Z,62.40
2019-03-20T19:44:36.169Z,62.22
2019-03-20T19:47:07.070Z,62.34
2019-03-20T19:49:37.955Z,62.09
2019-03-20T19:52:08.366Z,62.46
2019-03-20T19:54:39.159Z,62.03
2019-03-20T19:57:13.273Z,62.33
2019-03-20T19:59:44.270Z,62.16
2019-03-20T20:02:18.438Z,62.19
2019-03-20T20:04:57.237Z,62.40
2019-03-20T20:07:28.123Z,62.16
2019-03-20T20:09:58.933Z,62.25
2019-03-20T20:12:31.611Z,62.38
2019-03-20T20:15:02.863Z,62.63
2019-03-20T20:17:33.764Z,62.51
2019-03-20T20:20:08.218Z,62.49
2019-03-20T20:22:38.775Z,62.28
2019-03-20T20:25:09.585Z,62.38
2019-03-20T20:27:40.651Z,63.04
2019-03-20T20:30:28.867Z,62.71
2019-03-20T20:33:01.231Z,62.48
2019-03-20T20:35:32.177Z,63.11
2019-03-20T20:38:03.101Z,62.52
2019-03-20T20:40:34.253Z,62.58
2019-03-20T20:43:04.997Z,63.00
2019-03-20T20:45:35.480Z,62.97
2019-03-20T20:48:06.234Z,63.29
2019-03-20T20:50:37.213Z,63.44
2019-03-20T20:53:10.477Z,63.42
2019-03-20T20:55:41.014Z,63.92
2019-03-20T20:58:12.554Z,63.44
2019-03-20T21:00:43.415Z,63.62
2019-03-20T21:03:15.897Z,64.09
2019-03-20T21:05:46.831Z,64.39
2019-03-20T21:08:17.669Z,64.26
2019-03-20T21:10:48.497Z,64.59
2019-03-20T21:13:19.277Z,64.82
2019-03-20T21:15:50.509Z,64.91
2019-03-20T21:18:44.337Z,64.89
2019-03-20T21:21:15.189Z,65.27
2019-03-20T21:24:22.281Z,65.58
2019-03-20T21:27:08.249Z,65.45
2019-03-20T21:30:04.909Z,66.23
2019-03-20T21:32:50.221Z,66.30
2019-03-20T21:35:55.522Z,66.59
2019-03-20T21:38:25.233Z,66.47
2019-03-20T21:41:18.300Z,67.09
2019-03-20T21:44:10.051Z,67.15
2019-03-20T21:47:09.542Z,67.68
2019-03-20T21:49:40.539Z,67.84
2019-03-20T21:52:11.443Z,68.02
2019-03-20T21:55:05.116Z,67.73
2019-03-20T21:57:41.618Z,68.06
2019-03-20T22:00:23.773Z,68.16
2019-03-20T22:02:54.481Z,68.53
2019-03-20T22:05:30.864Z,68.50
2019-03-20T22:08:01.414Z,68.85
2019-03-20T22:10:56.704Z,69.69
2019-03-20T22:13:36.656Z,69.77
2019-03-20T22:16:42.473Z,70.12
2019-03-20T22:19:22.699Z,71.21
2019-03-20T22:22:13.108Z,72.25
2019-03-20T22:25:11.487Z,72.21
2019-03-20T22:27:58.676Z,73.13
2019-03-20T22:30:29.604Z,74.12
2019-03-20T22:33:36.810Z,74.86
2019-03-20T22:36:07.844Z,75.12
2019-03-20T22:38:46.981Z,74.85
2019-03-20T22:41:29.484Z,75.21
2019-03-20T22:44:01.649Z,75.63
2019-03-20T22:47:08.919Z,75.98
2019-03-20T22:50:03.808Z,75.90
2019-03-20T22:53:00.494Z,76.13
2019-03-20T22:55:43.399Z,76.33
2019-03-20T22:58:17.298Z,76.09
2019-03-20T23:00:51.400Z,76.12
2019-03-20T23:03:28.199Z,76.17
2019-03-20T23:05:59.184Z,75.99
2019-03-20T23:08:30.000Z,76.04
2019-03-20T23:11:01.593Z,76.02
2019-03-20T23:13:40.973Z,76.05
2019-03-20T23:16:08.558Z,75.94
2019-03-20T23:18:39.938Z,76.22
2019-03-20T23:21:12.840Z,76.09
2019-03-20T23:23:43.724Z,76.50
2019-03-20T23:26:14.634Z,76.25
2019-03-20T23:28:45.191Z,76.23
2019-03-20T23:31:17.546Z,76.35
2019-03-20T23:33:48.404Z,76.44
2019-03-20T23:36:25.002Z,76.41
2019-03-20T23:38:55.271Z,76.69
2019-03-20T23:41:25.711Z,76.52
2019-03-20T23:43:56.718Z,76.38
2019-03-20T23:46:27.463Z,76.22
2019-03-20T23:49:10.804Z,76.16
2019-03-20T23:51:41.361Z,76.47
2019-03-20T23:54:13.333Z,76.60
2019-03-20T23:56:44.128Z,76.71
2019-03-20T23:59:14.972Z,76.70
